sensor_id;sensor_type;location;lat;lon;timestamp;pressure;altitude;pressure_sealevel;temperature;humidity
9717;BME280;4897;43.570;27.832;2023-05-23T00:01:37;98677.63;;;15.26;100.00
9717;BME280;4897;43.570;27.832;2023-05-23T00:04:05;98668.22;;;15.21;100.00
9717;BME280;4897;43.570;27.832;2023-05-23T00:06:32;98655.44;;;15.15;100.00
9717;BME280;4897;43.570;27.832;2023-05-23T00:09:00;98680.00;;;15.29;100.00
9717;BME280;4897;43.570;27.832;2023-05-23T00:11:28;98466.81;;;13.90;100.00
9717;BME280;4897;43.570;27.832;2023-05-23T00:13:57;98671.41;;;15.17;100.00
9717;BME280;4897;43.570;27.832;2023-05-23T00:16:25;98681.00;;;15.28;100.00
9717;BME280;4897;43.570;27.832;2023-05-23T00:18:52;98681.00;;;15.28;100.00
9717;BME280;4897;43.570;27.832;2023-05-23T00:21:22;98623.84;;;14.93;100.00
9717;BME280;4897;43.570;27.832;2023-05-23T00:23:49;98657.78;;;15.27;100.00
9717;BME280;4897;43.570;27.832;2023-05-23T00:26:18;98641.28;;;15.13;100.00
9717;BME280;4897;43.570;27.832;2023-05-23T00:28:46;98558.94;;;14.64;100.00
9717;BME280;4897;43.570;27.832;2023-05-23T00:31:14;98669.19;;;15.37;100.00
9717;BME280;4897;43.570;27.832;2023-05-23T00:33:42;98668.56;;;15.27;100.00
9717;BME280;4897;43.570;27.832;2023-05-23T00:36:08;98670.06;;;15.13;100.00
9717;BME280;4897;43.570;27.832;2023-05-23T00:38:36;98668.22;;;15.13;100.00
9717;BME280;4897;43.570;27.832;2023-05-23T00:41:04;98648.88;;;15.18;100.00
9717;BME280;4897;43.570;27.832;2023-05-23T00:43:31;98672.72;;;15.37;100.00
9717;BME280;4897;43.570;27.832;2023-05-23T00:45:58;98671.72;;;15.38;100.00
9717;BME280;4897;43.570;27.832;2023-05-23T00:48:29;98662.94;;;15.52;100.00
9717;BME280;4897;43.570;27.832;2023-05-23T00:50:56;98651.69;;;15.49;100.00
9717;BME280;4897;43.570;27.832;2023-05-23T00:53:23;98649.84;;;15.33;100.00
9717;BME280;4897;43.570;27.832;2023-05-23T00:55:50;98652.38;;;15.35;100.00
9717;BME280;4897;43.570;27.832;2023-05-23T00:58:17;98651.72;;;15.25;100.00
9717;BME280;4897;43.570;27.832;2023-05-23T01:00:44;98647.19;;;15.09;100.00
9717;BME280;4897;43.570;27.832;2023-05-23T01:03:11;98634.25;;;14.96;100.00
9717;BME280;4897;43.570;27.832;2023-05-23T01:05:43;98657.78;;;15.02;100.00
9717;BME280;4897;43.570;27.832;2023-05-23T01:08:10;98594.06;;;14.63;100.00
9717;BME280;4897;43.570;27.832;2023-05-23T01:10:40;98658.47;;;15.04;100.00
9717;BME280;4897;43.570;27.832;2023-05-23T01:13:15;98664.69;;;15.05;100.00
9717;BME280;4897;43.570;27.832;2023-05-23T01:15:49;98659.13;;;15.14;100.00
9717;BME280;4897;43.570;27.832;2023-05-23T01:18:23;98590.72;;;14.61;100.00
9717;BME280;4897;43.570;27.832;2023-05-23T01:20:56;98656.13;;;15.09;100.00
9717;BME280;4897;43.570;27.832;2023-05-23T01:23:54;98665.53;;;15.13;100.00
9717;BME280;4897;43.570;27.832;2023-05-23T01:26:40;98659.13;;;15.06;100.00
9717;BME280;4897;43.570;27.832;2023-05-23T01:29:20;98596.91;;;14.77;100.00
9717;BME280;4897;43.570;27.832;2023-05-23T01:31:51;98642.16;;;14.98;100.00
9717;BME280;4897;43.570;27.832;2023-05-23T01:34:20;98661.16;;;14.96;100.00
9717;BME280;4897;43.570;27.832;2023-05-23T01:36:49;98657.13;;;15.00;100.00
9717;BME280;4897;43.570;27.832;2023-05-23T01:39:19;98665.19;;;15.08;100.00
9717;BME280;4897;43.570;27.832;2023-05-23T01:41:46;98645.34;;;14.85;100.00
9717;BME280;4897;43.570;27.832;2023-05-23T01:44:15;98620.47;;;14.75;100.00
9717;BME280;4897;43.570;27.832;2023-05-23T01:46:43;98653.72;;;15.14;100.00
9717;BME280;4897;43.570;27.832;2023-05-23T01:49:12;98649.72;;;15.02;100.00
9717;BME280;4897;43.570;27.832;2023-05-23T01:51:40;98616.59;;;14.86;100.00
9717;BME280;4897;43.570;27.832;2023-05-23T01:54:07;98666.72;;;15.11;100.00
9717;BME280;4897;43.570;27.832;2023-05-23T01:56:34;98640.25;;;15.14;100.00
9717;BME280;4897;43.570;27.832;2023-05-23T01:59:01;98635.53;;;15.16;100.00
9717;BME280;4897;43.570;27.832;2023-05-23T02:01:30;98642.31;;;15.20;100.00
9717;BME280;4897;43.570;27.832;2023-05-23T02:03:57;98564.47;;;14.71;100.00
9717;BME280;4897;43.570;27.832;2023-05-23T02:06:24;98608.19;;;14.97;100.00
9717;BME280;4897;43.570;27.832;2023-05-23T02:08:51;98646.66;;;15.21;100.00
9717;BME280;4897;43.570;27.832;2023-05-23T02:11:17;98634.88;;;15.23;100.00
9717;BME280;4897;43.570;27.832;2023-05-23T02:13:44;98612.41;;;14.91;100.00
9717;BME280;4897;43.570;27.832;2023-05-23T02:16:11;98657.13;;;15.08;100.00
9717;BME280;4897;43.570;27.832;2023-05-23T02:18:39;98656.28;;;15.00;100.00
9717;BME280;4897;43.570;27.832;2023-05-23T02:21:06;98654.09;;;14.87;100.00
9717;BME280;4897;43.570;27.832;2023-05-23T02:23:33;98678.88;;;14.75;100.00
9717;BME280;4897;43.570;27.832;2023-05-23T02:26:00;98652.09;;;14.81;100.00
9717;BME280;4897;43.570;27.832;2023-05-23T02:28:27;98657.81;;;14.86;100.00
9717;BME280;4897;43.570;27.832;2023-05-23T02:30:54;98658.66;;;14.87;100.00
9717;BME280;4897;43.570;27.832;2023-05-23T02:33:21;98661.00;;;14.90;100.00
9717;BME280;4897;43.570;27.832;2023-05-23T02:35:49;98656.47;;;14.82;100.00
9717;BME280;4897;43.570;27.832;2023-05-23T02:38:16;98635.97;;;14.65;100.00
9717;BME280;4897;43.570;27.832;2023-05-23T02:40:44;98660.69;;;14.77;100.00
9717;BME280;4897;43.570;27.832;2023-05-23T02:43:11;98662.88;;;14.65;100.00
9717;BME280;4897;43.570;27.832;2023-05-23T02:45:41;98658.34;;;14.58;100.00
9717;BME280;4897;43.570;27.832;2023-05-23T02:48:08;98612.69;;;14.16;100.00
9717;BME280;4897;43.570;27.832;2023-05-23T02:50:36;98669.59;;;14.53;100.00
9717;BME280;4897;43.570;27.832;2023-05-23T02:53:04;98656.09;;;14.29;100.00
9717;BME280;4897;43.570;27.832;2023-05-23T02:55:31;98586.59;;;13.92;100.00
9717;BME280;4897;43.570;27.832;2023-05-23T02:57:58;98667.19;;;14.34;100.00
9717;BME280;4897;43.570;27.832;2023-05-23T03:00:26;98640.25;;;14.10;100.00
9717;BME280;4897;43.570;27.832;2023-05-23T03:02:53;98669.19;;;14.24;100.00
9717;BME280;4897;43.570;27.832;2023-05-23T03:05:19;98680.66;;;14.34;100.00
9717;BME280;4897;43.570;27.832;2023-05-23T03:07:46;98516.28;;;13.39;100.00
9717;BME280;4897;43.570;27.832;2023-05-23T03:10:15;98602.56;;;13.94;100.00
9717;BME280;4897;43.570;27.832;2023-05-23T03:12:42;98540.03;;;13.68;100.00
9717;BME280;4897;43.570;27.832;2023-05-23T03:15:10;98677.78;;;14.35;100.00
9717;BME280;4897;43.570;27.832;2023-05-23T03:17:37;98655.47;;;14.35;100.00
9717;BME280;4897;43.570;27.832;2023-05-23T03:20:05;98681.69;;;14.49;100.00
9717;BME280;4897;43.570;27.832;2023-05-23T03:22:34;98683.72;;;14.47;100.00
9717;BME280;4897;43.570;27.832;2023-05-23T03:25:01;98675.63;;;14.47;100.00
9717;BME280;4897;43.570;27.832;2023-05-23T03:27:29;98674.97;;;14.37;100.00
9717;BME280;4897;43.570;27.832;2023-05-23T03:29:56;98669.22;;;14.40;100.00
9717;BME280;4897;43.570;27.832;2023-05-23T03:32:23;98495.63;;;13.39;100.00
9717;BME280;4897;43.570;27.832;2023-05-23T03:34:50;98659.16;;;14.50;100.00
9717;BME280;4897;43.570;27.832;2023-05-23T03:37:17;98645.03;;;14.48;100.00
9717;BME280;4897;43.570;27.832;2023-05-23T03:39:43;98686.09;;;14.66;100.00
9717;BME280;4897;43.570;27.832;2023-05-23T03:42:10;98677.97;;;14.50;100.00
9717;BME280;4897;43.570;27.832;2023-05-23T03:44:39;98677.97;;;14.42;100.00
9717;BME280;4897;43.570;27.832;2023-05-23T03:47:06;98677.47;;;14.30;100.00
9717;BME280;4897;43.570;27.832;2023-05-23T03:49:33;98674.97;;;14.37;100.00
9717;BME280;4897;43.570;27.832;2023-05-23T03:52:00;98679.66;;;14.35;100.00
9717;BME280;4897;43.570;27.832;2023-05-23T03:54:26;98689.41;;;14.36;100.00
9717;BME280;4897;43.570;27.832;2023-05-23T03:56:53;98640.19;;;14.02;100.00
9717;BME280;4897;43.570;27.832;2023-05-23T03:59:21;98666.13;;;14.27;100.00
9717;BME280;4897;43.570;27.832;2023-05-23T04:01:49;98701.19;;;14.43;100.00
9717;BME280;4897;43.570;27.832;2023-05-23T04:04:19;98677.97;;;14.42;100.00
9717;BME280;4897;43.570;27.832;2023-05-23T04:06:46;98636.03;;;14.07;100.00
9717;BME280;4897;43.570;27.832;2023-05-23T04:09:13;98699.84;;;14.47;100.00
9717;BME280;4897;43.570;27.832;2023-05-23T04:11:40;98702.19;;;14.50;100.00
9717;BME280;4897;43.570;27.832;2023-05-23T04:14:07;98676.63;;;14.54;100.00
9717;BME280;4897;43.570;27.832;2023-05-23T04:16:36;98698.19;;;14.70;100.00
9717;BME280;4897;43.570;27.832;2023-05-23T04:19:07;98690.81;;;14.72;100.00
9717;BME280;4897;43.570;27.832;2023-05-23T04:21:34;98690.44;;;14.75;100.00
9717;BME280;4897;43.570;27.832;2023-05-23T04:24:01;98689.44;;;14.84;100.00
9717;BME280;4897;43.570;27.832;2023-05-23T04:26:28;98697.03;;;14.97;100.00
9717;BME280;4897;43.570;27.832;2023-05-23T04:28:54;98708.94;;;15.10;100.00
9717;BME280;4897;43.570;27.832;2023-05-23T04:31:21;98701.38;;;15.14;100.00
9717;BME280;4897;43.570;27.832;2023-05-23T04:33:49;98704.22;;;15.29;100.00
9717;BME280;4897;43.570;27.832;2023-05-23T04:36:17;98710.44;;;15.37;100.00
9717;BME280;4897;43.570;27.832;2023-05-23T04:38:44;98697.09;;;15.68;100.00
9717;BME280;4897;43.570;27.832;2023-05-23T04:41:11;98697.69;;;15.86;100.00
9717;BME280;4897;43.570;27.832;2023-05-23T04:43:40;98668.06;;;15.78;100.00
9717;BME280;4897;43.570;27.832;2023-05-23T04:46:08;98697.56;;;16.18;100.00
9717;BME280;4897;43.570;27.832;2023-05-23T04:48:35;98692.53;;;16.38;100.00
9717;BME280;4897;43.570;27.832;2023-05-23T04:51:03;98700.09;;;16.50;100.00
9717;BME280;4897;43.570;27.832;2023-05-23T04:53:33;98702.03;;;16.64;100.00
9717;BME280;4897;43.570;27.832;2023-05-23T04:56:01;98696.78;;;16.86;100.00
9717;BME280;4897;43.570;27.832;2023-05-23T04:58:28;98698.09;;;17.12;100.00
9717;BME280;4897;43.570;27.832;2023-05-23T05:00:56;98706.31;;;17.56;100.00
9717;BME280;4897;43.570;27.832;2023-05-23T05:03:25;98679.78;;;17.37;100.00
9717;BME280;4897;43.570;27.832;2023-05-23T05:05:52;98686.09;;;17.67;100.00
9717;BME280;4897;43.570;27.832;2023-05-23T05:08:19;98665.25;;;17.96;100.00
9717;BME280;4897;43.570;27.832;2023-05-23T05:10:47;98692.44;;;18.38;100.00
9717;BME280;4897;43.570;27.832;2023-05-23T05:13:14;98688.38;;;18.85;100.00
9717;BME280;4897;43.570;27.832;2023-05-23T05:15:41;98693.06;;;19.19;100.00
9717;BME280;4897;43.570;27.832;2023-05-23T05:18:08;98655.91;;;19.40;100.00
9717;BME280;4897;43.570;27.832;2023-05-23T05:20:42;98688.31;;;20.17;100.00
9717;BME280;4897;43.570;27.832;2023-05-23T05:23:09;98695.50;;;20.31;100.00
9717;BME280;4897;43.570;27.832;2023-05-23T05:25:36;98684.25;;;20.47;100.00
9717;BME280;4897;43.570;27.832;2023-05-23T05:28:04;98680.69;;;20.46;100.00
9717;BME280;4897;43.570;27.832;2023-05-23T05:30:32;98686.72;;;21.02;100.00
9717;BME280;4897;43.570;27.832;2023-05-23T05:32:59;98667.84;;;21.73;100.00
9717;BME280;4897;43.570;27.832;2023-05-23T05:35:29;98672.84;;;21.89;100.00
9717;BME280;4897;43.570;27.832;2023-05-23T05:37:56;98678.75;;;21.07;100.00
9717;BME280;4897;43.570;27.832;2023-05-23T05:40:23;98652.63;;;21.13;100.00
9717;BME280;4897;43.570;27.832;2023-05-23T05:42:50;98677.28;;;21.57;100.00
9717;BME280;4897;43.570;27.832;2023-05-23T05:45:19;98666.34;;;20.72;100.00
9717;BME280;4897;43.570;27.832;2023-05-23T05:47:46;98685.91;;;21.15;100.00
9717;BME280;4897;43.570;27.832;2023-05-23T05:50:12;98665.38;;;21.06;100.00
9717;BME280;4897;43.570;27.832;2023-05-23T05:52:40;98670.81;;;21.06;100.00
9717;BME280;4897;43.570;27.832;2023-05-23T05:55:09;98691.69;;;20.92;100.00
9717;BME280;4897;43.570;27.832;2023-05-23T05:57:37;98684.34;;;20.86;100.00
9717;BME280;4897;43.570;27.832;2023-05-23T06:00:05;98684.97;;;20.88;100.00
9717;BME280;4897;43.570;27.832;2023-05-23T06:02:38;98676.69;;;21.48;100.00
9717;BME280;4897;43.570;27.832;2023-05-23T06:05:06;98682.72;;;21.57;100.00
9717;BME280;4897;43.570;27.832;2023-05-23T06:07:33;98677.53;;;21.29;100.00
9717;BME280;4897;43.570;27.832;2023-05-23T06:10:04;98678.34;;;21.63;100.00
9717;BME280;4897;43.570;27.832;2023-05-23T06:12:32;98671.81;;;21.70;100.00
9717;BME280;4897;43.570;27.832;2023-05-23T06:14:59;98681.00;;;21.95;100.00
9717;BME280;4897;43.570;27.832;2023-05-23T06:17:27;98670.28;;;22.07;100.00
9717;BME280;4897;43.570;27.832;2023-05-23T06:19:55;98675.31;;;21.97;100.00
9717;BME280;4897;43.570;27.832;2023-05-23T06:22:22;98642.25;;;21.80;100.00
9717;BME280;4897;43.570;27.832;2023-05-23T06:24:49;98641.03;;;21.83;100.00
9717;BME280;4897;43.570;27.832;2023-05-23T06:27:16;98672.84;;;21.89;100.00
9717;BME280;4897;43.570;27.832;2023-05-23T06:29:43;98685.19;;;21.72;100.00
9717;BME280;4897;43.570;27.832;2023-05-23T06:32:10;98682.75;;;21.37;100.00
9717;BME280;4897;43.570;27.832;2023-05-23T06:34:37;98688.81;;;21.26;100.00
9717;BME280;4897;43.570;27.832;2023-05-23T06:37:05;98698.03;;;21.25;100.00
9717;BME280;4897;43.570;27.832;2023-05-23T06:39:32;98678.75;;;21.60;100.00
9717;BME280;4897;43.570;27.832;2023-05-23T06:41:59;98686.00;;;22.05;100.00
9717;BME280;4897;43.570;27.832;2023-05-23T06:44:26;98677.66;;;22.44;100.00
9717;BME280;4897;43.570;27.832;2023-05-23T06:46:54;98677.00;;;22.86;100.00
9717;BME280;4897;43.570;27.832;2023-05-23T06:49:23;98674.03;;;22.63;100.00
9717;BME280;4897;43.570;27.832;2023-05-23T06:51:50;98650.50;;;22.24;100.00
9717;BME280;4897;43.570;27.832;2023-05-23T06:54:19;98679.69;;;22.55;100.00
9717;BME280;4897;43.570;27.832;2023-05-23T06:56:45;98679.53;;;22.50;100.00
9717;BME280;4897;43.570;27.832;2023-05-23T06:59:12;98673.50;;;22.35;100.00
9717;BME280;4897;43.570;27.832;2023-05-23T07:01:39;98687.94;;;22.42;100.00
9717;BME280;4897;43.570;27.832;2023-05-23T07:04:06;98681.78;;;22.60;100.00
9717;BME280;4897;43.570;27.832;2023-05-23T07:06:34;98661.72;;;22.85;100.00
9717;BME280;4897;43.570;27.832;2023-05-23T07:09:01;98650.78;;;22.92;100.00
9717;BME280;4897;43.570;27.832;2023-05-23T07:11:30;98647.63;;;22.88;100.00
9717;BME280;4897;43.570;27.832;2023-05-23T07:13:58;98680.91;;;23.28;100.00
9717;BME280;4897;43.570;27.832;2023-05-23T07:16:25;98669.53;;;23.38;100.00
9717;BME280;4897;43.570;27.832;2023-05-23T07:18:52;98670.25;;;22.95;100.00
9717;BME280;4897;43.570;27.832;2023-05-23T07:21:19;98679.75;;;22.86;100.00
9717;BME280;4897;43.570;27.832;2023-05-23T07:23:47;98676.50;;;22.71;100.00
9717;BME280;4897;43.570;27.832;2023-05-23T07:26:14;98686.69;;;22.82;100.00
9717;BME280;4897;43.570;27.832;2023-05-23T07:28:42;98675.38;;;22.41;100.00
9717;BME280;4897;43.570;27.832;2023-05-23T07:31:09;98683.13;;;22.44;100.00
9717;BME280;4897;43.570;27.832;2023-05-23T07:33:36;98668.84;;;22.49;100.00
9717;BME280;4897;43.570;27.832;2023-05-23T07:36:03;98658.19;;;22.78;100.00
9717;BME280;4897;43.570;27.832;2023-05-23T07:38:30;98660.66;;;22.86;100.00
9717;BME280;4897;43.570;27.832;2023-05-23T07:40:57;98684.13;;;23.19;100.00
9717;BME280;4897;43.570;27.832;2023-05-23T07:43:24;98676.28;;;23.29;100.00
9717;BME280;4897;43.570;27.832;2023-05-23T07:45:53;98663.09;;;23.26;100.00
9717;BME280;4897;43.570;27.832;2023-05-23T07:48:20;98685.00;;;23.44;100.00
9717;BME280;4897;43.570;27.832;2023-05-23T07:50:47;98680.19;;;23.64;100.00
9717;BME280;4897;43.570;27.832;2023-05-23T07:53:14;98683.16;;;24.05;100.00
9717;BME280;4897;43.570;27.832;2023-05-23T07:55:41;98658.69;;;24.28;100.00
9717;BME280;4897;43.570;27.832;2023-05-23T07:58:08;98640.31;;;25.48;100.00
9717;BME280;4897;43.570;27.832;2023-05-23T08:00:35;98674.66;;;25.32;100.00
9717;BME280;4897;43.570;27.832;2023-05-23T08:03:04;98652.19;;;25.30;100.00
9717;BME280;4897;43.570;27.832;2023-05-23T08:05:31;98676.97;;;24.94;100.00
9717;BME280;4897;43.570;27.832;2023-05-23T08:07:58;98647.88;;;26.55;93.07
9717;BME280;4897;43.570;27.832;2023-05-23T08:10:25;98643.53;;;27.15;79.93
9717;BME280;4897;43.570;27.832;2023-05-23T08:12:54;98669.88;;;26.32;91.78
9717;BME280;4897;43.570;27.832;2023-05-23T08:15:21;98647.69;;;26.45;91.82
9717;BME280;4897;43.570;27.832;2023-05-23T08:17:48;98645.44;;;27.31;77.74
9717;BME280;4897;43.570;27.832;2023-05-23T08:20:17;98666.03;;;27.79;72.08
9717;BME280;4897;43.570;27.832;2023-05-23T08:22:44;98646.25;;;26.99;81.48
9717;BME280;4897;43.570;27.832;2023-05-23T08:25:11;98664.69;;;26.07;95.52
9717;BME280;4897;43.570;27.832;2023-05-23T08:27:38;98637.78;;;25.81;100.00
9717;BME280;4897;43.570;27.832;2023-05-23T08:30:06;98658.34;;;26.30;98.23
9717;BME280;4897;43.570;27.832;2023-05-23T08:32:34;98635.41;;;26.07;97.85
9717;BME280;4897;43.570;27.832;2023-05-23T08:35:01;98628.03;;;26.36;91.12
9717;BME280;4897;43.570;27.832;2023-05-23T08:37:29;98659.69;;;27.28;84.50
9717;BME280;4897;43.570;27.832;2023-05-23T08:39:56;98659.66;;;26.95;84.17
9717;BME280;4897;43.570;27.832;2023-05-23T08:42:23;98588.97;;;27.02;81.66
9717;BME280;4897;43.570;27.832;2023-05-23T08:44:50;98641.94;;;27.19;78.57
9717;BME280;4897;43.570;27.832;2023-05-23T08:47:18;98640.03;;;26.47;86.71
9717;BME280;4897;43.570;27.832;2023-05-23T08:49:46;98615.63;;;25.36;100.00
9717;BME280;4897;43.570;27.832;2023-05-23T08:52:17;98625.63;;;25.19;100.00
9717;BME280;4897;43.570;27.832;2023-05-23T08:54:49;98618.13;;;25.84;100.00
9717;BME280;4897;43.570;27.832;2023-05-23T08:57:17;98620.28;;;26.45;97.49
9717;BME280;4897;43.570;27.832;2023-05-23T08:59:44;98615.94;;;27.55;82.56
9717;BME280;4897;43.570;27.832;2023-05-23T09:02:13;98650.31;;;27.96;80.95
9717;BME280;4897;43.570;27.832;2023-05-23T09:04:40;98643.38;;;27.72;77.70
9717;BME280;4897;43.570;27.832;2023-05-23T09:07:09;98637.38;;;27.58;79.87
9717;BME280;4897;43.570;27.832;2023-05-23T09:09:37;98647.72;;;27.67;81.14
9717;BME280;4897;43.570;27.832;2023-05-23T09:12:06;98641.72;;;27.54;78.35
9717;BME280;4897;43.570;27.832;2023-05-23T09:14:34;98649.34;;;27.68;76.63
9717;BME280;4897;43.570;27.832;2023-05-23T09:17:02;98610.34;;;27.50;76.71
9717;BME280;4897;43.570;27.832;2023-05-23T09:19:32;98658.78;;;28.11;73.81
9717;BME280;4897;43.570;27.832;2023-05-23T09:22:01;98622.88;;;28.17;70.34
9717;BME280;4897;43.570;27.832;2023-05-23T09:24:33;98656.34;;;27.76;71.16
9717;BME280;4897;43.570;27.832;2023-05-23T09:27:01;98653.69;;;27.31;77.55
9717;BME280;4897;43.570;27.832;2023-05-23T09:29:30;98648.28;;;26.75;83.87
9717;BME280;4897;43.570;27.832;2023-05-23T09:31:59;98649.25;;;26.97;84.65
9717;BME280;4897;43.570;27.832;2023-05-23T09:34:27;98647.09;;;26.71;86.73
9717;BME280;4897;43.570;27.832;2023-05-23T09:36:54;98640.28;;;25.71;92.78
9717;BME280;4897;43.570;27.832;2023-05-23T09:39:21;98658.41;;;25.49;99.48
9717;BME280;4897;43.570;27.832;2023-05-23T09:41:48;98661.03;;;25.78;100.00
9717;BME280;4897;43.570;27.832;2023-05-23T09:44:21;98641.28;;;25.53;100.00
9717;BME280;4897;43.570;27.832;2023-05-23T09:46:53;98649.22;;;25.43;100.00
9717;BME280;4897;43.570;27.832;2023-05-23T09:49:20;98657.63;;;24.77;100.00
9717;BME280;4897;43.570;27.832;2023-05-23T09:51:57;98669.53;;;24.83;100.00
9717;BME280;4897;43.570;27.832;2023-05-23T09:54:24;98657.44;;;24.13;100.00
9717;BME280;4897;43.570;27.832;2023-05-23T09:56:52;98677.75;;;24.17;100.00
9717;BME280;4897;43.570;27.832;2023-05-23T09:59:21;98701.78;;;23.90;100.00
9717;BME280;4897;43.570;27.832;2023-05-23T10:01:51;98685.19;;;23.49;100.00
9717;BME280;4897;43.570;27.832;2023-05-23T10:04:21;98702.31;;;23.00;100.00
9717;BME280;4897;43.570;27.832;2023-05-23T10:06:50;98699.63;;;22.93;100.00
9717;BME280;4897;43.570;27.832;2023-05-23T10:09:20;98671.63;;;22.36;100.00
9717;BME280;4897;43.570;27.832;2023-05-23T10:14:54;98688.50;;;22.13;100.00
9717;BME280;4897;43.570;27.832;2023-05-23T10:17:27;98706.25;;;22.22;100.00
9717;BME280;4897;43.570;27.832;2023-05-23T10:20:00;98689.13;;;22.08;100.00
9717;BME280;4897;43.570;27.832;2023-05-23T10:22:33;98702.91;;;22.20;100.00
9717;BME280;4897;43.570;27.832;2023-05-23T10:25:01;98678.59;;;22.25;100.00
9717;BME280;4897;43.570;27.832;2023-05-23T10:27:30;98695.31;;;22.35;100.00
9717;BME280;4897;43.570;27.832;2023-05-23T10:29:58;98699.47;;;22.44;100.00
9717;BME280;4897;43.570;27.832;2023-05-23T10:32:26;98696.53;;;22.39;100.00
9717;BME280;4897;43.570;27.832;2023-05-23T10:34:56;98551.56;;;21.29;100.00
9717;BME280;4897;43.570;27.832;2023-05-23T10:37:32;98680.69;;;22.23;100.00
9717;BME280;4897;43.570;27.832;2023-05-23T10:40:04;98676.84;;;22.37;100.00
9717;BME280;4897;43.570;27.832;2023-05-23T10:42:46;98669.53;;;22.38;100.00
9717;BME280;4897;43.570;27.832;2023-05-23T10:45:17;98696.25;;;22.54;100.00
9717;BME280;4897;43.570;27.832;2023-05-23T10:47:48;98693.38;;;22.49;100.00
9717;BME280;4897;43.570;27.832;2023-05-23T10:50:30;98656.59;;;22.20;100.00
9717;BME280;4897;43.570;27.832;2023-05-23T10:53:00;98609.19;;;21.77;100.00
9717;BME280;4897;43.570;27.832;2023-05-23T10:55:30;98670.66;;;22.17;100.00
9717;BME280;4897;43.570;27.832;2023-05-23T10:58:13;98691.03;;;22.59;100.00
9717;BME280;4897;43.570;27.832;2023-05-23T11:00:50;98692.13;;;22.82;100.00
9717;BME280;4897;43.570;27.832;2023-05-23T11:03:19;98698.94;;;22.73;100.00
9717;BME280;4897;43.570;27.832;2023-05-23T11:05:56;98679.50;;;22.94;100.00
9717;BME280;4897;43.570;27.832;2023-05-23T11:08:27;98682.63;;;23.23;100.00
9717;BME280;4897;43.570;27.832;2023-05-23T11:11:03;98690.78;;;23.97;100.00
9717;BME280;4897;43.570;27.832;2023-05-23T11:13:57;98699.31;;;24.25;100.00
9717;BME280;4897;43.570;27.832;2023-05-23T11:16:28;98688.94;;;24.15;100.00
9717;BME280;4897;43.570;27.832;2023-05-23T11:19:20;98676.31;;;24.14;100.00
9717;BME280;4897;43.570;27.832;2023-05-23T11:21:52;98696.63;;;24.54;100.00
9717;BME280;4897;43.570;27.832;2023-05-23T11:24:21;98694.06;;;24.41;100.00
9717;BME280;4897;43.570;27.832;2023-05-23T11:26:52;98670.63;;;24.34;100.00
9717;BME280;4897;43.570;27.832;2023-05-23T11:32:28;98664.91;;;24.83;100.00
9717;BME280;4897;43.570;27.832;2023-05-23T11:34:58;98684.72;;;25.08;100.00
9717;BME280;4897;43.570;27.832;2023-05-23T11:37:26;98696.47;;;24.97;100.00
9717;BME280;4897;43.570;27.832;2023-05-23T11:40:26;98688.53;;;25.60;100.00
9717;BME280;4897;43.570;27.832;2023-05-23T11:42:54;98676.50;;;26.07;100.00
9717;BME280;4897;43.570;27.832;2023-05-23T11:45:28;98678.88;;;26.55;100.00
9717;BME280;4897;43.570;27.832;2023-05-23T11:47:56;98665.03;;;26.90;99.03
9717;BME280;4897;43.570;27.832;2023-05-23T11:50:24;98665.41;;;26.54;100.00
9717;BME280;4897;43.570;27.832;2023-05-23T11:52:53;98642.81;;;26.35;100.00
9717;BME280;4897;43.570;27.832;2023-05-23T11:55:22;98663.75;;;26.53;100.00
9717;BME280;4897;43.570;27.832;2023-05-23T11:57:49;98666.69;;;26.23;100.00
9717;BME280;4897;43.570;27.832;2023-05-23T12:00:18;98651.94;;;26.24;96.28
9717;BME280;4897;43.570;27.832;2023-05-23T12:02:45;98652.50;;;26.94;89.41
9717;BME280;4897;43.570;27.832;2023-05-23T12:05:13;98622.00;;;27.57;78.17
9717;BME280;4897;43.570;27.832;2023-05-23T12:07:41;98639.41;;;28.92;64.27
9717;BME280;4897;43.570;27.832;2023-05-23T12:10:08;98650.22;;;28.29;62.72
9717;BME280;4897;43.570;27.832;2023-05-23T12:12:39;98641.59;;;27.99;62.45
9717;BME280;4897;43.570;27.832;2023-05-23T12:15:08;98643.53;;;28.90;58.56
9717;BME280;4897;43.570;27.832;2023-05-23T12:17:38;98633.41;;;29.22;56.97
9717;BME280;4897;43.570;27.832;2023-05-23T12:20:10;98645.56;;;28.99;58.32
9717;BME280;4897;43.570;27.832;2023-05-23T12:22:37;98627.06;;;29.95;55.56
9717;BME280;4897;43.570;27.832;2023-05-23T12:25:07;98637.69;;;31.20;50.23
9717;BME280;4897;43.570;27.832;2023-05-23T12:27:35;98633.16;;;32.20;46.86
9717;BME280;4897;43.570;27.832;2023-05-23T12:30:08;98629.53;;;30.53;50.65
9717;BME280;4897;43.570;27.832;2023-05-23T12:32:38;98640.56;;;29.91;52.45
9717;BME280;4897;43.570;27.832;2023-05-23T12:35:07;98629.09;;;29.73;55.73
9717;BME280;4897;43.570;27.832;2023-05-23T12:37:34;98632.97;;;31.11;51.98
9717;BME280;4897;43.570;27.832;2023-05-23T12:40:16;98631.31;;;30.95;51.31
9717;BME280;4897;43.570;27.832;2023-05-23T12:42:53;98614.59;;;30.44;52.93
9717;BME280;4897;43.570;27.832;2023-05-23T12:45:22;98636.22;;;30.77;51.81
9717;BME280;4897;43.570;27.832;2023-05-23T12:47:50;98622.50;;;30.98;50.01
9717;BME280;4897;43.570;27.832;2023-05-23T12:50:17;98619.13;;;32.06;46.67
9717;BME280;4897;43.570;27.832;2023-05-23T12:52:44;98617.19;;;33.15;43.90
9717;BME280;4897;43.570;27.832;2023-05-23T12:55:12;98578.53;;;31.72;44.61
9717;BME280;4897;43.570;27.832;2023-05-23T12:57:39;98612.41;;;30.56;47.22
9717;BME280;4897;43.570;27.832;2023-05-23T13:00:07;98603.34;;;29.99;50.34
9717;BME280;4897;43.570;27.832;2023-05-23T13:02:36;98472.91;;;28.95;51.21
9717;BME280;4897;43.570;27.832;2023-05-23T13:05:04;98616.59;;;29.23;53.51
9717;BME280;4897;43.570;27.832;2023-05-23T13:07:31;98546.28;;;29.53;51.87
9717;BME280;4897;43.570;27.832;2023-05-23T13:09:58;98607.03;;;31.42;47.62
9717;BME280;4897;43.570;27.832;2023-05-23T13:12:26;98617.69;;;32.14;45.75
9717;BME280;4897;43.570;27.832;2023-05-23T13:14:54;98605.19;;;33.24;41.72
9717;BME280;4897;43.570;27.832;2023-05-23T13:17:22;98605.81;;;33.78;40.46